Time;durP1;ratioP1;P1;durP2;ratioP2;P2;SDS_P1;SDS_P2;PMS_P1;PMS_P2;Temp;Humidity;BMP_temperature;BMP_pressure;BME280_temperature;BME280_humidity;BME280_pressure;Samples;Min_cycle;Max_cycle;Signal;HPM_P1;HPM_P2
2022/12/16 00:00:45;;;;;;;0.30;0.30;;;-7.40;99.90;;;;;;4993636;28;20208;-70
2022/12/16 00:03:12;;;;;;;0.30;0.30;;;-7.40;99.90;;;;;;4990985;28;20255;-70
2022/12/16 00:05:39;;;;;;;0.30;0.30;;;-7.40;99.90;;;;;;5012074;28;20220;-70
2022/12/16 00:08:06;;;;;;;0.30;0.30;;;-7.40;99.90;;;;;;4995927;28;20208;-70
2022/12/16 00:10:51;;;;;;;0.20;0.20;;;-7.40;99.90;;;;;;4997422;28;20208;-71
2022/12/16 00:13:19;;;;;;;0.30;0.30;;;-7.40;99.90;;;;;;4986714;28;20810;-70
2022/12/16 00:15:46;;;;;;;0.30;0.30;;;-7.40;99.90;;;;;;4999347;28;20234;-70
2022/12/16 00:18:13;;;;;;;0.30;0.30;;;-7.40;99.90;;;;;;4996755;28;20338;-70
2022/12/16 00:20:45;;;;;;;0.30;0.30;;;-7.40;99.90;;;;;;5010275;28;20208;-71
2022/12/16 00:23:12;;;;;;;0.30;0.30;;;-7.40;99.90;;;;;;5005061;28;20724;-70
2022/12/16 00:25:41;;;;;;;0.30;0.30;;;-7.40;99.90;;;;;;5008058;28;20220;-71
2022/12/16 00:28:09;;;;;;;0.28;0.28;;;-7.50;99.90;;;;;;5009959;28;20284;-71
2022/12/16 00:30:36;;;;;;;0.30;0.30;;;-7.50;99.90;;;;;;4999681;28;20224;-71
2022/12/16 00:33:03;;;;;;;0.30;0.30;;;-7.50;99.90;;;;;;4992149;28;20270;-70
2022/12/16 00:35:30;;;;;;;0.20;0.20;;;-7.60;99.90;;;;;;4991088;28;20232;-71
2022/12/16 00:37:58;;;;;;;0.20;0.20;;;-7.60;99.90;;;;;;4994251;28;20705;-70
2022/12/16 00:40:25;;;;;;;0.20;0.20;;;-7.60;99.90;;;;;;4987676;28;20201;-70
2022/12/16 00:42:54;;;;;;;0.20;0.20;;;-7.60;99.90;;;;;;4989686;28;20207;-70
2022/12/16 00:45:21;;;;;;;0.20;0.20;;;-7.60;99.90;;;;;;4991328;28;20200;-71
2022/12/16 00:47:50;;;;;;;0.22;0.22;;;-7.60;99.90;;;;;;4997150;28;20200;-71
2022/12/16 00:50:17;;;;;;;0.20;0.20;;;-7.60;99.90;;;;;;4991989;28;20263;-72
2022/12/16 00:52:45;;;;;;;0.20;0.20;;;-7.60;99.90;;;;;;4991954;28;20204;-70
2022/12/16 00:55:12;;;;;;;0.20;0.20;;;-7.60;99.90;;;;;;4993028;28;20208;-70
2022/12/16 00:57:39;;;;;;;0.30;0.30;;;-7.60;99.90;;;;;;4989503;28;20244;-71
2022/12/16 01:00:11;;;;;;;0.30;0.30;;;-7.60;99.90;;;;;;5009132;28;20207;-70
2022/12/16 01:02:40;;;;;;;0.30;0.30;;;-7.60;99.90;;;;;;4993697;28;20204;-72
2022/12/16 01:05:08;;;;;;;0.30;0.30;;;-7.60;99.90;;;;;;4995662;28;20208;-72
2022/12/16 01:07:35;;;;;;;0.30;0.30;;;-7.70;99.90;;;;;;5008642;28;20342;-71
2022/12/16 01:10:02;;;;;;;0.30;0.30;;;-7.70;99.90;;;;;;4992336;28;20204;-71
2022/12/16 01:12:29;;;;;;;0.30;0.30;;;-7.70;99.90;;;;;;4996788;28;20686;-71
2022/12/16 01:14:56;;;;;;;0.30;0.30;;;-7.70;99.90;;;;;;5005694;28;20208;-70
2022/12/16 01:17:25;;;;;;;0.30;0.30;;;-7.80;99.90;;;;;;4994646;28;20294;-69
2022/12/16 01:19:52;;;;;;;0.30;0.30;;;-7.80;99.90;;;;;;5005817;28;20207;-70
2022/12/16 01:22:20;;;;;;;0.30;0.30;;;-7.80;99.90;;;;;;4996241;28;20262;-70
2022/12/16 01:24:47;;;;;;;0.30;0.30;;;-7.80;99.90;;;;;;4992776;28;20207;-71
2022/12/16 01:27:15;;;;;;;0.40;0.40;;;-7.90;99.90;;;;;;5003203;28;20242;-70
2022/12/16 01:29:42;;;;;;;0.30;0.30;;;;;;;;;;4992012;28;20235;-71
2022/12/16 01:32:12;;;;;;;0.38;0.38;;;-7.90;99.90;;;;;;5004267;28;20200;-70
2022/12/16 01:34:41;;;;;;;0.30;0.30;;;-7.90;99.90;;;;;;4988473;28;20212;-71
2022/12/16 01:37:12;;;;;;;0.30;0.30;;;-7.90;99.90;;;;;;5006272;28;20285;-70
2022/12/16 01:39:42;;;;;;;0.30;0.30;;;-8.00;99.90;;;;;;5010917;28;20224;-70
2022/12/16 01:42:12;;;;;;;0.30;0.30;;;-8.00;99.90;;;;;;4995074;28;20223;-71
2022/12/16 01:44:43;;;;;;;0.30;0.30;;;-8.00;99.90;;;;;;5008278;28;20279;-71
2022/12/16 01:47:16;;;;;;;0.30;0.30;;;-8.00;99.90;;;;;;5005851;28;20210;-71
2022/12/16 01:49:49;;;;;;;0.30;0.30;;;-8.00;99.90;;;;;;4987947;28;20297;-70
2022/12/16 01:52:19;;;;;;;0.30;0.30;;;-8.00;99.90;;;;;;5005601;28;20196;-70
2022/12/16 01:54:51;;;;;;;0.30;0.30;;;-8.00;99.90;;;;;;4988274;28;20716;-71
2022/12/16 01:57:24;;;;;;;0.20;0.20;;;-8.00;99.90;;;;;;4986774;28;20239;-71
2022/12/16 01:59:53;;;;;;;0.30;0.30;;;-8.00;99.90;;;;;;5007998;28;20201;-71
2022/12/16 02:02:21;;;;;;;0.30;0.30;;;-8.00;99.90;;;;;;4994994;28;20220;-70
2022/12/16 02:07:30;;;;;;;0.30;0.30;;;-8.10;99.90;;;;;;4982714;28;20228;-71
2022/12/16 02:09:58;;;;;;;0.30;0.30;;;-8.10;99.90;;;;;;5006888;28;20204;-71
2022/12/16 02:12:31;;;;;;;0.30;0.30;;;-8.10;99.90;;;;;;4992261;28;20412;-70
2022/12/16 02:15:19;;;;;;;0.30;0.30;;;-8.10;99.90;;;;;;4988102;28;20205;-70
2022/12/16 02:17:53;;;;;;;0.30;0.30;;;-8.20;99.90;;;;;;4987688;28;20208;-71
2022/12/16 02:20:49;;;;;;;0.30;0.30;;;-8.20;99.90;;;;;;4987461;28;20204;-71
2022/12/16 02:23:49;;;;;;;0.30;0.30;;;-8.20;99.90;;;;;;5004175;28;20196;-70
2022/12/16 02:26:40;;;;;;;0.30;0.30;;;-8.30;99.90;;;;;;5007274;28;20217;-71
2022/12/16 02:29:32;;;;;;;0.30;0.30;;;-8.30;99.90;;;;;;5013529;28;20200;-71
2022/12/16 02:32:07;;;;;;;0.30;0.30;;;-8.30;99.90;;;;;;4987887;28;20201;-71
2022/12/16 02:34:44;;;;;;;0.30;0.30;;;-8.40;99.90;;;;;;5005834;28;20196;-71
2022/12/16 02:37:19;;;;;;;0.30;0.30;;;-8.40;99.90;;;;;;4997655;28;20350;-71
2022/12/16 02:39:51;;;;;;;0.30;0.30;;;-8.40;99.90;;;;;;4986292;28;20315;-71
2022/12/16 02:42:27;;;;;;;0.30;0.30;;;-8.50;99.90;;;;;;4992581;28;20246;-71
2022/12/16 02:45:00;;;;;;;0.30;0.30;;;-8.50;99.90;;;;;;4989748;28;20204;-71
2022/12/16 02:47:29;;;;;;;0.30;0.30;;;-8.60;99.90;;;;;;4990867;28;20220;-71
2022/12/16 02:49:57;;;;;;;0.30;0.30;;;-8.60;99.90;;;;;;4997316;28;20201;-71
2022/12/16 02:52:26;;;;;;;0.30;0.30;;;-8.60;99.90;;;;;;4993654;28;20208;-71
2022/12/16 02:54:57;;;;;;;0.30;0.30;;;-8.60;99.90;;;;;;5007680;28;20276;-71
2022/12/16 02:57:59;;;;;;;0.30;0.30;;;-8.50;99.90;;;;;;4989535;28;20585;-71
2022/12/16 03:00:32;;;;;;;0.30;0.30;;;-8.60;99.90;;;;;;5009635;28;20192;-71
2022/12/16 03:03:09;;;;;;;0.30;0.30;;;-8.50;99.90;;;;;;5004310;28;20236;-71
2022/12/16 03:05:39;;;;;;;0.30;0.30;;;-8.60;99.90;;;;;;5005831;28;20226;-71
2022/12/16 03:08:12;;;;;;;0.30;0.30;;;-8.60;99.90;;;;;;5007684;28;20246;-71
2022/12/16 03:10:44;;;;;;;0.30;0.30;;;-8.60;99.90;;;;;;5004828;28;20267;-70
2022/12/16 03:13:13;;;;;;;0.20;0.20;;;-8.60;99.90;;;;;;4988937;28;20238;-71
2022/12/16 03:15:43;;;;;;;0.30;0.30;;;-8.60;99.90;;;;;;4985960;28;20232;-71
2022/12/16 03:18:13;;;;;;;0.30;0.30;;;-8.60;99.90;;;;;;5003587;28;20224;-71
2022/12/16 03:20:44;;;;;;;0.30;0.30;;;-8.70;99.90;;;;;;4997899;28;20212;-71
2022/12/16 03:23:17;;;;;;;0.30;0.30;;;-8.70;99.90;;;;;;4987948;28;20231;-71
2022/12/16 03:25:47;;;;;;;0.30;0.30;;;-8.70;99.90;;;;;;4992438;28;20232;-71
2022/12/16 03:28:28;;;;;;;0.30;0.30;;;-8.70;99.90;;;;;;4987171;28;20200;-71
2022/12/16 03:31:01;;;;;;;0.30;0.30;;;-8.70;99.90;;;;;;4988536;28;20228;-71
2022/12/16 03:33:35;;;;;;;0.30;0.30;;;-8.70;99.90;;;;;;4987539;28;20200;-71
2022/12/16 03:36:06;;;;;;;0.30;0.30;;;-8.70;99.90;;;;;;5004367;28;20224;-71
2022/12/16 03:38:35;;;;;;;0.30;0.30;;;-8.70;99.90;;;;;;5013764;28;20232;-71
2022/12/16 03:41:04;;;;;;;0.30;0.30;;;-8.80;99.90;;;;;;5009217;28;20638;-71
2022/12/16 03:43:31;;;;;;;0.30;0.30;;;-8.70;99.90;;;;;;5011554;28;20568;-71
2022/12/16 03:46:02;;;;;;;0.30;0.30;;;-8.70;99.90;;;;;;5002714;28;20224;-71
2022/12/16 03:48:30;;;;;;;0.30;0.30;;;-8.70;99.90;;;;;;4992566;28;20196;-72
2022/12/16 03:50:58;;;;;;;0.30;0.30;;;-8.70;99.90;;;;;;4991536;28;20200;-71
2022/12/16 03:53:25;;;;;;;0.30;0.30;;;-8.70;99.90;;;;;;4995020;28;20200;-71
2022/12/16 03:55:53;;;;;;;0.30;0.30;;;-8.80;99.90;;;;;;4994466;28;20418;-70
2022/12/16 03:58:21;;;;;;;0.30;0.30;;;-8.80;99.90;;;;;;5016583;28;20212;-70
2022/12/16 04:00:48;;;;;;;0.30;0.30;;;-8.80;99.90;;;;;;4990776;28;20219;-71
2022/12/16 04:03:15;;;;;;;0.30;0.30;;;-8.80;99.90;;;;;;4991706;28;20238;-71
2022/12/16 04:05:45;;;;;;;0.30;0.30;;;-8.90;99.90;;;;;;5009329;28;20239;-71
2022/12/16 04:08:13;;;;;;;0.30;0.30;;;-8.90;99.90;;;;;;5010067;28;20193;-71
2022/12/16 04:24:29;;;;;;;0.30;0.30;;;-8.80;99.90;;;;;;4998440;28;20201;-70
2022/12/16 04:30:17;;;;;;;0.30;0.30;;;-8.80;99.90;;;;;;5008589;28;20674;-71
2022/12/16 04:34:24;;;;;;;0.30;0.30;;;-8.80;99.90;;;;;;5005866;28;20193;-71
